Time;durP1;ratioP1;P1;durP2;ratioP2;P2;SDS_P1;SDS_P2;PMS_P1;PMS_P2;Temp;Humidity;BMP_temperature;BMP_pressure;BME280_temperature;BME280_humidity;BME280_pressure;Samples;Min_cycle;Max_cycle;Signal;HPM_P1;HPM_P2
2023/08/04 00:01:52;;;;;;;12.10;11.20;;;;;;;27.52;47.51;94709.25;6134104;28;109683;-64
2023/08/04 00:04:55;;;;;;;12.20;11.20;;;;;;;27.51;47.66;94701.53;6149270;28;109244;-64
2023/08/04 00:07:58;;;;;;;11.87;11.03;;;;;;;27.53;47.19;94710.81;6126977;28;109430;-64
2023/08/04 00:11:01;;;;;;;12.20;11.30;;;;;;;27.51;47.38;94707.69;6146534;28;109164;-64
2023/08/04 00:14:06;;;;;;;11.98;11.07;;;;;;;27.53;46.93;94710.03;6157438;28;109111;-64
2023/08/04 00:17:09;;;;;;;12.65;11.70;;;;;;;27.53;47.54;94705.44;6142787;28;109360;-64
2023/08/04 00:20:13;;;;;;;12.35;11.45;;;;;;;27.54;46.84;94711.59;6137936;28;109290;-64
2023/08/04 00:23:16;;;;;;;12.40;11.50;;;;;;;27.51;47.50;94704.22;6140854;28;109330;-64
2023/08/04 00:26:19;;;;;;;12.00;11.10;;;;;;;27.50;47.37;94705.34;6147849;28;109135;-64
2023/08/04 00:29:23;;;;;;;12.05;11.25;;;;;;;27.52;46.78;94706.56;6133621;28;109709;-64
2023/08/04 00:32:28;;;;;;;12.15;11.25;;;;;;;27.51;47.28;94706.91;6151021;28;109175;-64
2023/08/04 00:35:31;;;;;;;12.00;11.13;;;;;;;27.52;46.70;94713.84;6143047;28;109532;-64
2023/08/04 00:38:34;;;;;;;12.27;11.48;;;;;;;27.49;46.83;94709.19;6158066;28;109658;-63
2023/08/04 00:41:37;;;;;;;12.90;12.00;;;;;;;27.49;46.61;94709.94;6146149;28;110934;-65
2023/08/04 00:44:41;;;;;;;12.27;11.48;;;;;;;27.49;46.70;94709.19;6160495;28;110280;-64
2023/08/04 00:47:45;;;;;;;12.00;11.20;;;;;;;27.45;46.54;94709.88;6137515;28;109410;-64
2023/08/04 00:50:48;;;;;;;12.00;11.20;;;;;;;27.45;47.21;94720.63;6138507;28;109187;-63
2023/08/04 00:53:51;;;;;;;11.95;11.13;;;;;;;27.45;46.74;94720.63;6139940;28;109287;-64
2023/08/04 00:56:56;;;;;;;12.00;11.10;;;;;;;27.44;47.24;94716.38;6122299;28;109287;-65
2023/08/04 01:00:02;;;;;;;12.90;11.90;;;;;;;27.41;46.60;94713.63;6136441;28;109232;-64
2023/08/04 01:03:05;;;;;;;12.18;11.30;;;;;;;27.42;46.60;94720.56;6144055;28;110104;-66
2023/08/04 01:06:18;;;;;;;12.30;11.40;;;;;;;27.40;47.06;94707.47;6132157;28;110067;-67
2023/08/04 01:09:33;;;;;;;12.30;11.40;;;;;;;27.38;47.25;94715.06;6124267;28;109260;-67
2023/08/04 01:12:44;;;;;;;12.90;12.00;;;;;;;27.40;47.26;94710.16;6128143;28;110082;-66
2023/08/04 01:15:50;;;;;;;13.30;12.30;;;;;;;27.41;47.49;94711.72;6119937;28;111289;-66
2023/08/04 01:18:53;;;;;;;12.50;11.60;;;;;;;27.40;47.63;94706.69;6137896;28;108884;-66
2023/08/04 01:21:57;;;;;;;11.90;11.00;;;;;;;27.39;47.47;94703.22;6134354;28;110113;-66
2023/08/04 01:25:01;;;;;;;13.40;12.40;;;;;;;27.39;47.18;94711.28;6139900;28;109075;-67
2023/08/04 01:28:09;;;;;;;13.65;12.65;;;;;;;27.38;47.44;94704.31;6147725;28;109949;-66
2023/08/04 01:31:12;;;;;;;13.70;12.70;;;;;;;27.38;47.62;94706.22;6139366;28;109497;-66
2023/08/04 01:34:15;;;;;;;13.10;12.20;;;;;;;27.38;47.72;94712.38;6136228;28;109497;-67
2023/08/04 01:37:20;;;;;;;13.60;12.60;;;;;;;27.40;47.65;94710.16;6137786;28;109075;-66
2023/08/04 01:40:23;;;;;;;14.13;13.13;;;;;;;27.41;47.49;94716.31;6129260;28;109562;-67
2023/08/04 01:43:26;;;;;;;13.70;12.70;;;;;;;27.39;47.19;94711.28;6153676;28;110161;-67
2023/08/04 01:46:29;;;;;;;13.65;12.65;;;;;;;27.41;47.40;94722.47;6134520;28;109307;-67
2023/08/04 01:49:32;;;;;;;13.70;12.70;;;;;;;27.41;47.61;94722.47;6113719;28;109671;-67
2023/08/04 01:52:37;;;;;;;13.48;12.48;;;;;;;27.35;47.10;94718.44;6133904;28;109301;-67
2023/08/04 01:55:40;;;;;;;13.40;12.40;;;;;;;27.39;47.63;94724.72;6145782;28;110589;-67
2023/08/04 01:58:44;;;;;;;13.60;12.52;;;;;;;27.40;46.96;94728.19;6146641;28;109172;-67
2023/08/04 02:01:47;;;;;;;13.80;12.80;;;;;;;27.39;47.66;94719.34;6128603;28;109329;-67
2023/08/04 02:04:50;;;;;;;13.20;12.30;;;;;;;27.37;47.47;94729.63;6135610;28;109037;-67
2023/08/04 02:07:55;;;;;;;13.70;12.70;;;;;;;27.41;47.50;94735.13;6143321;28;110492;-67
2023/08/04 02:10:58;;;;;;;13.60;12.70;;;;;;;27.43;47.47;94728.25;6152331;28;109286;-67
2023/08/04 02:14:01;;;;;;;13.90;12.90;;;;;;;27.42;47.46;94732.09;6127177;28;109296;-67
2023/08/04 02:17:05;;;;;;;13.23;12.30;;;;;;;27.43;47.44;94739.00;6153968;28;109483;-67
2023/08/04 02:20:09;;;;;;;13.75;12.75;;;;;;;27.41;47.24;94735.13;6158376;28;109307;-67
2023/08/04 02:23:13;;;;;;;13.73;12.82;;;;;;;27.40;47.68;94741.63;6137729;28;109751;-63
2023/08/04 02:26:16;;;;;;;13.50;12.60;;;;;;;27.41;47.54;94743.19;6139315;28;110330;-66
2023/08/04 02:29:20;;;;;;;13.80;12.80;;;;;;;27.37;48.03;94751.13;6135223;28;109281;-67
2023/08/04 02:32:23;;;;;;;13.73;12.73;;;;;;;27.40;47.74;94750.47;6154032;28;110700;-67
2023/08/04 02:35:26;;;;;;;13.40;12.50;;;;;;;27.39;47.39;94751.59;6125188;28;110403;-66
2023/08/04 02:38:30;;;;;;;13.70;12.60;;;;;;;27.38;47.52;94759.97;6141735;28;110154;-66
2023/08/04 02:41:33;;;;;;;13.70;12.80;;;;;;;27.35;47.98;94752.59;6146318;28;109340;-66
2023/08/04 02:44:37;;;;;;;13.50;12.53;;;;;;;27.38;47.39;94760.75;6146116;28;110129;-67
2023/08/04 02:47:40;;;;;;;14.60;13.60;;;;;;;27.39;47.81;94756.19;6133944;28;110721;-68
2023/08/04 02:50:43;;;;;;;14.70;13.70;;;;;;;27.37;47.17;94756.50;6129927;28;110366;-67
2023/08/04 02:53:48;;;;;;;14.20;13.20;;;;;;;27.36;47.40;94754.94;6137586;28;109132;-67
2023/08/04 02:56:51;;;;;;;15.18;13.98;;;;;;;27.34;47.37;94756.44;6135152;28;110047;-64
2023/08/04 02:59:54;;;;;;;15.10;14.00;;;;;;;27.35;47.98;94758.75;6151162;28;109664;-67
2023/08/04 03:02:57;;;;;;;14.65;13.65;;;;;;;27.35;47.49;94761.44;6141270;28;110136;-66
2023/08/04 03:06:02;;;;;;;15.68;14.57;;;;;;;27.35;47.30;94764.13;6146467;28;109038;-67
2023/08/04 03:09:06;;;;;;;16.17;15.07;;;;;;;27.35;47.74;94772.19;6126721;28;109467;-67
2023/08/04 03:12:10;;;;;;;15.77;14.73;;;;;;;27.33;47.76;94771.78;6135356;28;108871;-67
2023/08/04 03:15:13;;;;;;;15.93;14.73;;;;;;;27.33;48.12;94758.34;6137681;28;108899;-66
2023/08/04 03:18:17;;;;;;;16.67;15.57;;;;;;;27.34;47.59;94757.19;6139541;28;109749;-68
2023/08/04 03:21:20;;;;;;;18.63;17.23;;;;;;;27.29;47.61;94754.78;6135586;28;110782;-66
2023/08/04 03:24:24;;;;;;;17.05;15.70;;;;;;;27.34;47.33;94759.13;6145599;28;109295;-66
2023/08/04 03:27:28;;;;;;;27.97;25.83;;;;;;;27.27;48.22;94759.72;6140592;28;109322;-66
2023/08/04 03:30:32;;;;;;;22.30;20.60;;;;;;;27.36;48.13;94760.31;6157775;28;109406;-66
2023/08/04 03:33:36;;;;;;;39.10;36.20;;;;;;;27.36;48.12;94759.53;6126007;28;109280;-66
2023/08/04 03:36:39;;;;;;;58.83;54.53;;;;;;;27.37;49.21;94772.63;6140362;28;110735;-66
2023/08/04 03:39:43;;;;;;;39.00;36.05;;;;;;;27.32;48.90;94764.84;6157433;28;109278;-66
2023/08/04 03:42:46;;;;;;;42.93;39.87;;;;;;;27.35;50.30;94758.75;6134053;28;110484;-63
2023/08/04 03:45:49;;;;;;;37.50;34.70;;;;;;;27.36;49.43;94763.00;6139567;28;109311;-66
2023/08/04 03:48:52;;;;;;;32.93;30.43;;;;;;;27.09;50.26;94761.94;6152494;28;110180;-67
2023/08/04 03:51:55;;;;;;;41.03;38.00;;;;;;;26.90;50.33;94769.88;6148508;28;110411;-67
2023/08/04 03:55:00;;;;;;;26.35;24.42;;;;;;;26.80;50.25;94764.97;6124630;28;109060;-65
2023/08/04 03:58:03;;;;;;;24.80;22.97;;;;;;;26.88;50.74;94766.72;6148203;28;109370;-66
2023/08/04 04:01:06;;;;;;;22.10;20.40;;;;;;;26.89;50.56;94762.94;6131863;28;109173;-67
2023/08/04 04:04:09;;;;;;;19.47;17.97;;;;;;;26.61;51.35;94762.91;6131378;28;109301;-65
2023/08/04 04:07:13;;;;;;;18.67;17.37;;;;;;;26.79;50.03;94766.88;6118443;28;110313;-66
2023/08/04 04:10:18;;;;;;;18.95;17.55;;;;;;;26.74;51.56;94769.81;6153228;28;109542;-68
2023/08/04 04:13:21;;;;;;;18.50;17.10;;;;;;;26.78;50.65;94769.91;6153733;28;109858;-68
2023/08/04 04:16:26;;;;;;;17.88;16.50;;;;;;;26.82;50.44;94771.56;6133953;28;109160;-65
2023/08/04 04:19:29;;;;;;;17.65;16.30;;;;;;;26.62;51.61;94767.16;6128329;28;109254;-64
2023/08/04 04:22:33;;;;;;;17.77;16.58;;;;;;;26.62;51.46;94767.16;6133894;28;111006;-65
2023/08/04 04:25:38;;;;;;;17.80;16.40;;;;;;;26.49;51.64;94769.09;6142245;28;109127;-68
2023/08/04 04:28:41;;;;;;;18.17;16.77;;;;;;;26.64;51.42;94766.84;6130609;28;109197;-64
2023/08/04 04:31:44;;;;;;;18.37;16.70;;;;;;;26.22;52.40;94767.97;6130727;28;109382;-65
2023/08/04 04:34:48;;;;;;;18.05;16.50;;;;;;;25.34;55.48;94764.00;6138820;28;109286;-60
2023/08/04 04:37:51;;;;;;;17.73;16.33;;;;;;;25.44;54.49;94765.50;6142800;28;109249;-59
2023/08/04 04:41:00;;;;;;;17.38;16.08;;;;;;;25.73;54.34;94775.25;6136595;28;109582;-59
2023/08/04 04:44:03;;;;;;;32.70;18.77;;;;;;;25.86;54.23;94776.00;6145794;28;109109;-59
2023/08/04 04:47:06;;;;;;;20.35;17.33;;;;;;;25.60;54.95;94781.72;6140683;28;109436;-60
2023/08/04 04:50:10;;;;;;;19.20;17.50;;;;;;;25.71;55.07;94779.34;6155710;28;109287;-61
2023/08/04 04:53:13;;;;;;;19.10;17.10;;;;;;;25.76;54.52;94779.16;6132956;28;109649;-59
2023/08/04 04:56:18;;;;;;;22.05;18.00;;;;;;;25.61;55.53;94776.00;6132143;28;109142;-60
2023/08/04 04:59:21;;;;;;;19.92;18.10;;;;;;;25.82;55.22;94786.63;6132376;28;110290;-60
2023/08/04 05:02:24;;;;;;;19.98;18.17;;;;;;;25.93;55.14;94781.59;6122084;28;110344;-61
2023/08/04 05:05:27;;;;;;;19.02;17.40;;;;;;;26.02;54.64;94776.91;6132158;28;108903;-60
2023/08/04 05:08:30;;;;;;;19.20;17.60;;;;;;;25.88;55.11;94784.50;6149979;28;109288;-60
2023/08/04 05:11:35;;;;;;;19.40;17.85;;;;;;;25.90;55.22;94790.31;6156705;28;110272;-60
2023/08/04 05:14:40;;;;;;;18.93;17.40;;;;;;;26.24;54.16;94791.75;6145690;28;110857;-60
2023/08/04 05:17:44;;;;;;;18.88;17.38;;;;;;;26.28;54.64;94788.06;6145762;28;110137;-60
2023/08/04 05:20:48;;;;;;;18.60;16.90;;;;;;;26.51;53.10;94790.22;6132524;28;109139;-61
2023/08/04 05:23:51;;;;;;;18.27;16.88;;;;;;;26.69;53.06;94794.22;6134972;28;109439;-61
2023/08/04 05:26:56;;;;;;;17.90;16.20;;;;;;;26.82;52.15;94798.41;6128520;28;110242;-61
2023/08/04 05:30:00;;;;;;;17.70;16.30;;;;;;;26.90;52.20;94791.34;6160157;28;109118;-59
2023/08/04 05:33:03;;;;;;;19.50;17.75;;;;;;;26.94;52.48;94794.91;6136930;28;109151;-59
2023/08/04 05:36:06;;;;;;;19.10;17.17;;;;;;;27.00;53.50;94784.69;6154684;28;109354;-59
2023/08/04 05:39:10;;;;;;;20.77;17.97;;;;;;;27.00;54.42;94787.38;6133952;28;109393;-60
2023/08/04 05:42:14;;;;;;;20.60;18.50;;;;;;;26.97;54.96;94791.53;6140937;28;109396;-60
2023/08/04 05:45:17;;;;;;;24.58;19.17;;;;;;;26.97;54.56;94796.13;6160611;28;109215;-65
2023/08/04 05:48:20;;;;;;;21.00;18.40;;;;;;;26.98;53.91;94793.09;6150175;28;110390;-65
2023/08/04 05:51:24;;;;;;;21.13;18.92;;;;;;;27.04;55.08;94796.31;6160355;28;110027;-64
2023/08/04 05:54:27;;;;;;;21.70;19.45;;;;;;;27.06;54.77;94792.16;6136831;28;109840;-66
2023/08/04 05:57:31;;;;;;;18.92;17.23;;;;;;;27.22;54.15;94792.19;6124608;28;109323;-65
2023/08/04 06:00:35;;;;;;;19.20;17.10;;;;;;;27.37;54.44;94790.66;6126375;28;109901;-65
2023/08/04 06:03:38;;;;;;;19.80;17.90;;;;;;;27.42;54.20;94801.97;6150789;28;109180;-65
2023/08/04 06:06:41;;;;;;;18.80;17.20;;;;;;;27.52;53.88;94791.81;6159337;28;109069;-64
2023/08/04 06:09:44;;;;;;;19.50;17.77;;;;;;;27.59;54.05;94795.47;6108908;28;109458;-63
2023/08/04 06:12:49;;;;;;;19.52;17.83;;;;;;;27.66;53.21;94794.84;6112842;28;109079;-64
2023/08/04 06:15:52;;;;;;;19.70;18.00;;;;;;;27.72;53.45;94793.44;6135200;28;109154;-65
2023/08/04 06:18:56;;;;;;;19.77;17.90;;;;;;;27.81;52.65;94790.59;6152051;28;109860;-65
2023/08/04 06:21:59;;;;;;;20.00;18.35;;;;;;;27.86;52.68;94799.19;6148539;28;109247;-64
2023/08/04 06:25:02;;;;;;;19.83;18.10;;;;;;;27.87;53.11;94794.59;6134591;28;110235;-63
2023/08/04 06:28:07;;;;;;;19.42;17.63;;;;;;;27.93;52.79;94783.22;6135031;28;109150;-65
2023/08/04 06:31:10;;;;;;;20.10;18.40;;;;;;;28.04;52.43;94789.63;6136089;28;109172;-64
2023/08/04 06:34:13;;;;;;;18.87;17.13;;;;;;;28.08;52.50;94791.63;6144688;28;109310;-65
2023/08/04 06:37:16;;;;;;;19.07;17.27;;;;;;;28.08;52.58;94805.09;6157920;28;109155;-64
2023/08/04 06:40:19;;;;;;;17.23;15.83;;;;;;;28.22;51.31;94789.22;6136343;28;109561;-64
2023/08/04 06:43:24;;;;;;;17.40;16.03;;;;;;;28.21;51.92;94787.66;6147657;28;109209;-64
2023/08/04 06:46:27;;;;;;;18.50;16.80;;;;;;;28.22;51.72;94787.31;6149687;28;109268;-68
2023/08/04 06:49:30;;;;;;;18.63;16.83;;;;;;;28.26;51.38;94785.50;6159985;28;109286;-64
2023/08/04 06:52:33;;;;;;;18.57;17.00;;;;;;;28.21;51.08;94783.06;6160544;28;110721;-64
2023/08/04 06:55:36;;;;;;;17.77;16.17;;;;;;;28.24;51.29;94773.53;6146643;28;110173;-61
2023/08/04 06:58:44;;;;;;;20.10;17.90;;;;;;;28.21;50.80;94779.59;6143424;28;109090;-61
2023/08/04 07:01:47;;;;;;;19.73;17.70;;;;;;;28.24;50.71;94776.22;6159768;28;110188;-61
2023/08/04 07:04:51;;;;;;;19.20;17.40;;;;;;;28.26;50.53;94780.13;6159695;28;109234;-61
2023/08/04 07:07:54;;;;;;;17.77;16.37;;;;;;;28.42;50.51;94768.53;6148922;28;109127;-61
2023/08/04 07:10:57;;;;;;;17.90;16.30;;;;;;;28.45;49.93;94765.91;6142432;28;109131;-62
2023/08/04 07:14:02;;;;;;;16.13;14.70;;;;;;;28.63;48.52;94771.69;6136179;28;109321;-60
2023/08/04 07:17:05;;;;;;;14.80;13.23;;;;;;;28.59;48.31;94768.13;6135667;28;109228;-60
2023/08/04 07:20:09;;;;;;;15.37;13.73;;;;;;;28.73;48.35;94764.94;6148886;28;109732;-60
2023/08/04 07:23:13;;;;;;;14.73;13.30;;;;;;;28.69;48.44;94764.09;6159962;28;110203;-60
2023/08/04 07:26:16;;;;;;;25.53;15.10;;;;;;;28.52;48.99;94765.28;6159576;28;109168;-60
2023/08/04 07:29:21;;;;;;;15.33;14.03;;;;;;;28.36;49.21;94757.25;6139481;28;109166;-61
2023/08/04 07:32:24;;;;;;;14.67;13.27;;;;;;;28.49;48.99;94769.47;6128603;28;109871;-60
2023/08/04 07:35:27;;;;;;;13.53;12.33;;;;;;;28.81;47.74;94758.56;6135164;28;109132;-60
2023/08/04 07:38:31;;;;;;;12.63;11.63;;;;;;;28.90;46.83;94765.28;6144538;28;109163;-60
2023/08/04 07:41:34;;;;;;;12.60;11.40;;;;;;;28.87;47.16;94759.81;6149054;28;110094;-60
2023/08/04 07:44:38;;;;;;;13.97;12.87;;;;;;;28.69;48.13;94756.78;6159258;28;109117;-60
2023/08/04 07:47:41;;;;;;;13.40;12.30;;;;;;;28.64;47.54;94749.78;6157805;28;109189;-60
2023/08/04 07:50:48;;;;;;;12.60;11.57;;;;;;;28.98;46.76;94755.41;6159080;28;109195;-60
2023/08/04 07:53:52;;;;;;;12.73;11.50;;;;;;;28.93;46.44;94753.81;6137756;28;110273;-60
2023/08/04 07:56:55;;;;;;;12.50;11.30;;;;;;;28.92;46.59;94748.78;6135037;28;110188;-60
2023/08/04 07:59:59;;;;;;;12.17;11.20;;;;;;;29.25;44.65;94750.94;6134547;28;109735;-60
2023/08/04 08:03:03;;;;;;;11.93;10.97;;;;;;;29.13;45.52;94757.25;6134134;28;108767;-60
2023/08/04 08:06:06;;;;;;;11.67;10.67;;;;;;;29.16;44.86;94743.06;6123447;28;110652;-61
2023/08/04 08:09:11;;;;;;;13.20;11.93;;;;;;;29.05;45.46;94758.25;6134433;28;109324;-62
2023/08/04 08:12:14;;;;;;;13.10;12.00;;;;;;;28.85;45.89;94751.31;6134498;28;109191;-62
2023/08/04 08:15:19;;;;;;;13.27;12.07;;;;;;;28.86;45.84;94747.47;6150201;28;109451;-62
2023/08/04 08:18:22;;;;;;;14.27;13.27;;;;;;;28.81;45.96;94737.78;6156387;28;110602;-62
2023/08/04 08:21:25;;;;;;;16.10;13.07;;;;;;;29.04;45.71;94743.22;6158771;28;110439;-62
2023/08/04 08:24:29;;;;;;;13.90;12.70;;;;;;;29.24;45.72;94739.38;6136737;28;109041;-62
2023/08/04 08:27:32;;;;;;;13.93;12.60;;;;;;;29.06;46.12;94734.78;6123873;28;109310;-64
2023/08/04 08:30:36;;;;;;;12.93;11.60;;;;;;;29.23;45.77;94737.00;6158079;28;110162;-62
2023/08/04 08:33:39;;;;;;;15.03;12.83;;;;;;;28.88;46.27;94745.22;6157986;28;109057;-62
2023/08/04 08:36:43;;;;;;;13.70;12.63;;;;;;;27.65;45.43;94731.44;6158555;28;109284;-62
2023/08/04 08:39:46;;;;;;;13.73;12.43;;;;;;;26.82;45.41;94731.28;6147408;28;109260;-62
2023/08/04 08:42:49;;;;;;;13.17;11.97;;;;;;;26.11;46.14;94739.25;6157936;28;109262;-61
2023/08/04 08:45:55;;;;;;;13.70;12.70;;;;;;;25.74;45.29;94727.78;6158436;28;109386;-61
2023/08/04 08:49:00;;;;;;;13.63;12.63;;;;;;;25.56;44.52;94727.22;6152736;28;109139;-62
2023/08/04 08:52:06;;;;;;;;;;;;;;;25.30;44.40;94728.28;6153411;28;110360;-61
2023/08/04 08:55:09;;;;;;;;;;;;;;;25.72;43.01;94721.97;6155315;28;109049;-62
2023/08/04 08:58:13;;;;;;;;;;;;;;;25.68;42.81;94725.31;6136882;28;109648;-64
2023/08/04 09:01:17;;;;;;;;;;;;;;;25.57;41.43;94713.50;6151825;28;109143;-62
2023/08/04 09:04:23;;;;;;;;;;;;;;;25.39;41.73;94717.50;6162425;28;110064;-62
2023/08/04 09:07:26;;;;;;;16.30;15.10;;;;;;;25.30;41.42;94712.22;6162361;28;109351;-61
2023/08/04 09:10:32;;;;;;;17.13;15.80;;;;;;;25.25;41.35;94707.09;6162146;28;109151;-62
2023/08/04 09:13:40;;;;;;;17.07;15.77;;;;;;;25.09;41.19;94706.97;6151573;28;109140;-61
2023/08/04 09:16:44;;;;;;;17.43;15.87;;;;;;;25.07;41.17;94703.84;6147641;28;110216;-61
2023/08/04 09:19:48;;;;;;;16.20;15.10;;;;;;;24.76;41.25;94704.34;6133912;28;110048;-61
2023/08/04 09:22:51;;;;;;;18.00;16.60;;;;;;;24.61;41.41;94694.22;6135039;28;109136;-62
2023/08/04 09:25:54;;;;;;;17.77;16.37;;;;;;;24.36;41.24;94696.06;6129860;28;109260;-61
2023/08/04 09:29:04;;;;;;;17.80;16.30;;;;;;;24.45;40.61;94693.28;6147371;28;109230;-62
2023/08/04 09:32:13;;;;;;;17.80;16.40;;;;;;;24.26;40.82;94696.44;6161367;28;109112;-62
2023/08/04 09:35:16;;;;;;;17.43;16.00;;;;;;;24.25;40.57;94689.53;6152362;28;110204;-61
2023/08/04 09:38:21;;;;;;;16.77;15.47;;;;;;;24.23;40.77;94683.72;6161189;28;109135;-62
2023/08/04 09:41:26;;;;;;;18.07;16.77;;;;;;;24.28;39.72;94686.19;6161919;28;110142;-62
2023/08/04 09:44:35;;;;;;;17.07;15.77;;;;;;;24.25;39.76;94684.19;6161636;28;110273;-62
2023/08/04 09:47:40;;;;;;;16.87;15.57;;;;;;;24.02;39.87;94688.28;6132385;28;110292;-62
2023/08/04 09:50:43;;;;;;;17.23;15.93;;;;;;;23.87;39.54;94678.97;6158535;28;109107;-61
2023/08/04 09:53:47;;;;;;;16.77;15.50;;;;;;;24.01;40.08;94684.06;6160058;28;109245;-61
2023/08/04 09:56:52;;;;;;;16.67;15.37;;;;;;;24.33;39.15;94675.28;6155129;28;109900;-62
2023/08/04 09:59:55;;;;;;;16.40;15.00;;;;;;;24.47;39.48;94675.78;6128332;28;110095;-61
2023/08/04 10:03:00;;;;;;;15.87;14.67;;;;;;;24.58;39.86;94675.38;6135162;28;109257;-62
2023/08/04 10:06:04;;;;;;;15.50;14.40;;;;;;;24.64;40.00;94668.69;6135690;28;109140;-61
2023/08/04 10:09:07;;;;;;;15.97;14.77;;;;;;;24.61;39.47;94667.47;6125159;28;109369;-60
2023/08/04 10:12:12;;;;;;;14.90;13.80;;;;;;;24.73;39.75;94667.53;6135298;28;109155;-61
2023/08/04 10:15:15;;;;;;;14.80;13.60;;;;;;;24.63;39.55;94659.09;6135592;28;109371;-60
2023/08/04 10:18:20;;;;;;;14.43;13.43;;;;;;;24.49;39.34;94668.22;6135607;28;109153;-59
2023/08/04 10:21:27;;;;;;;14.00;13.00;;;;;;;24.38;39.49;94660.94;6126207;28;111633;-59
2023/08/04 10:24:31;;;;;;;14.20;13.10;;;;;;;24.26;39.46;94664.34;6135471;28;109449;-66
2023/08/04 10:27:47;;;;;;;14.10;13.10;;;;;;;24.10;39.46;94664.16;6135811;28;109335;-68
2023/08/04 10:31:03;;;;;;;13.90;12.90;;;;;;;24.02;39.40;94667.69;6135846;28;110251;-68
2023/08/04 10:34:18;;;;;;;13.80;12.80;;;;;;;23.95;39.94;94653.25;6136927;28;109055;-68
2023/08/04 10:37:21;;;;;;;13.13;12.23;;;;;;;23.97;39.42;94654.50;6158974;28;109246;-68
2023/08/04 10:40:29;;;;;;;12.98;12.07;;;;;;;23.90;39.37;94654.25;6141469;28;110307;-69
2023/08/04 10:43:32;;;;;;;13.00;11.90;;;;;;;23.94;38.94;94651.69;6125208;28;110059;-66
2023/08/04 10:46:35;;;;;;;13.48;12.48;;;;;;;24.05;40.43;94643.00;6113416;28;109310;-67
2023/08/04 10:49:40;;;;;;;12.77;11.77;;;;;;;23.97;40.11;94641.13;6133384;28;109118;-69
2023/08/04 10:52:44;;;;;;;12.60;11.60;;;;;;;24.78;39.32;94647.81;6159120;28;109434;-68
2023/08/04 10:55:55;;;;;;;12.40;11.40;;;;;;;25.62;38.54;94642.78;6149208;28;110067;-68
2023/08/04 10:58:59;;;;;;;11.65;10.65;;;;;;;26.20;37.83;94640.63;6159291;28;109318;-67
2023/08/04 11:02:02;;;;;;;12.88;11.68;;;;;;;26.63;37.42;94639.09;6158422;28;109068;-68
2023/08/04 11:05:09;;;;;;;12.10;11.20;;;;;;;26.90;37.16;94637.50;6141291;28;109121;-66
2023/08/04 11:08:13;;;;;;;11.77;10.88;;;;;;;27.07;36.93;94642.53;6128130;28;109154;-67
2023/08/04 11:11:16;;;;;;;10.70;9.90;;;;;;;27.21;36.93;94637.47;6157905;28;110229;-67
2023/08/04 11:14:20;;;;;;;11.00;10.10;;;;;;;27.32;37.06;94635.84;6159804;28;109086;-67
2023/08/04 11:17:23;;;;;;;11.00;10.20;;;;;;;27.41;37.45;94627.63;6133994;28;109582;-68
2023/08/04 11:20:29;;;;;;;11.50;10.60;;;;;;;27.49;37.02;94626.63;6135166;28;109200;-67
2023/08/04 11:23:35;;;;;;;11.47;10.67;;;;;;;27.56;37.48;94631.41;6136478;28;109248;-67
2023/08/04 11:26:39;;;;;;;9.90;9.10;;;;;;;27.60;37.46;94624.19;6159868;28;109530;-69
2023/08/04 11:29:42;;;;;;;11.00;10.20;;;;;;;27.64;37.52;94619.66;6150060;28;110184;-69
2023/08/04 11:32:50;;;;;;;11.47;10.50;;;;;;;27.66;37.90;94622.78;6159537;28;109164;-67
2023/08/04 11:35:55;;;;;;;11.30;10.40;;;;;;;27.71;38.03;94625.19;6139222;28;109323;-66
2023/08/04 11:38:58;;;;;;;10.70;10.00;;;;;;;27.72;38.36;94615.97;6114316;28;109160;-66
2023/08/04 11:42:02;;;;;;;10.10;9.30;;;;;;;27.77;38.57;94607.66;6124542;28;110076;-66
2023/08/04 11:45:09;;;;;;;10.33;9.40;;;;;;;27.81;38.57;94608.50;6135724;28;110104;-65
2023/08/04 11:48:12;;;;;;;10.60;9.80;;;;;;;27.85;38.73;94613.94;6135267;28;109303;-65
2023/08/04 11:51:17;;;;;;;9.93;9.23;;;;;;;27.88;38.94;94605.19;6146812;28;109544;-64
2023/08/04 11:54:22;;;;;;;9.73;9.03;;;;;;;27.89;39.08;94604.88;6158832;28;109144;-66
2023/08/04 11:57:26;;;;;;;9.50;8.80;;;;;;;27.94;39.61;94601.09;6157281;28;109153;-66
2023/08/04 12:00:36;;;;;;;9.63;8.90;;;;;;;27.94;39.71;94595.72;6134382;28;109312;-66
2023/08/04 12:03:44;;;;;;;9.67;8.97;;;;;;;27.97;39.36;94593.09;6119305;28;109156;-66
2023/08/04 12:06:57;;;;;;;9.30;8.60;;;;;;;27.99;39.48;94596.22;6111046;28;109105;-67
2023/08/04 12:10:01;;;;;;;10.13;9.40;;;;;;;28.00;39.86;94592.38;6120859;28;109182;-63
2023/08/04 12:13:05;;;;;;;9.40;8.60;;;;;;;28.00;40.18;94578.94;6134789;28;109316;-66
2023/08/04 12:16:09;;;;;;;11.13;9.57;;;;;;;28.14;40.00;94578.44;6124983;28;109324;-66
2023/08/04 12:19:12;;;;;;;9.73;9.07;;;;;;;28.21;39.83;94573.16;6137218;28;109169;-66
2023/08/04 12:22:16;;;;;;;10.73;9.63;;;;;;;28.27;39.25;94579.06;6159107;28;109061;-66
2023/08/04 12:25:23;;;;;;;10.53;9.70;;;;;;;28.35;39.13;94575.34;6149421;28;109947;-66
2023/08/04 12:28:26;;;;;;;10.87;9.90;;;;;;;28.39;38.65;94572.72;6158537;28;108988;-66
2023/08/04 12:31:30;;;;;;;10.40;9.60;;;;;;;28.42;38.51;94575.50;6158694;28;109299;-66
2023/08/04 12:34:34;;;;;;;11.17;10.07;;;;;;;28.03;41.31;94564.78;6153735;28;110171;-67
2023/08/04 12:37:38;;;;;;;15.97;10.57;;;;;;;26.80;44.05;94561.72;6124456;28;109739;-65
2023/08/04 12:40:41;;;;;;;15.37;10.30;;;;;;;26.22;44.35;94558.72;6133786;28;109291;-66
2023/08/04 12:43:45;;;;;;;12.67;10.90;;;;;;;25.73;44.61;94557.34;6134497;28;108862;-66
2023/08/04 12:46:49;;;;;;;28.13;10.83;;;;;;;25.45;43.96;94558.09;6134136;28;111281;-66
2023/08/04 12:49:53;;;;;;;25.10;11.20;;;;;;;25.35;41.94;94553.19;6130611;28;109405;-65
2023/08/04 12:52:57;;;;;;;19.73;10.40;;;;;;;25.11;40.84;94547.88;6158816;28;110085;-66
2023/08/04 12:56:00;;;;;;;13.60;10.50;;;;;;;25.04;39.65;94551.91;6157803;28;109136;-66
2023/08/04 12:59:03;;;;;;;15.90;10.07;;;;;;;24.88;38.56;94544.88;6153624;28;110162;-64
2023/08/04 13:02:07;;;;;;;;;;;;;;;24.78;37.47;94536.19;6128718;28;109171;-66
2023/08/04 13:05:10;;;;;;;;;;;;;;;24.65;37.03;94536.47;6134682;28;110566;-65
2023/08/04 13:08:14;;;;;;;;;;;;;;;24.68;36.89;94533.94;6134667;28;109209;-65
2023/08/04 13:11:17;;;;;;;;;;;;;;;24.77;36.45;94533.84;6123666;28;110360;-66
2023/08/04 13:14:20;;;;;;;;;;;;;;;24.95;36.90;94543.19;6135604;28;110011;-66
2023/08/04 13:17:24;;;;;;;;;;;;;;;25.00;36.61;94532.25;6146055;28;109168;-66
2023/08/04 13:20:27;;;;;;;;;;;;;;;24.92;36.78;94527.81;6134374;28;109215;-65
2023/08/04 13:23:32;;;;;;;;;;;;;;;25.09;36.25;94529.47;6124192;28;110152;-66
2023/08/04 13:26:34;;;;;;;;;;;;;;;25.06;36.20;94520.22;6134497;28;110927;-66
2023/08/04 13:29:38;;;;;;;;;;;;;;;24.97;36.43;94521.44;6137014;28;109127;-66
2023/08/04 13:32:41;;;;;;;;;;;;;;;25.04;36.27;94519.78;6157597;28;110055;-65
2023/08/04 13:35:44;;;;;;;;;;;;;;;25.22;36.20;94514.16;6151472;28;110064;-66
2023/08/04 13:38:49;;;;;;;;;;;;;;;25.07;36.38;94516.41;6158682;28;110072;-66
2023/08/04 13:41:52;;;;;;;;;;;;;;;25.17;36.90;94519.72;6157849;28;109190;-67
2023/08/04 13:44:55;;;;;;;;;;;;;;;25.09;37.14;94519.53;6144883;28;109804;-66
2023/08/04 13:47:58;;;;;;;;;;;;;;;25.16;36.93;94518.94;6138008;28;109237;-66
2023/08/04 13:51:02;;;;;;;;;;;;;;;25.14;37.05;94515.06;6138348;28;110045;-65
2023/08/04 13:54:26;;;;;;;;;;;;;;;25.12;36.98;94514.63;6138286;28;109510;-66
2023/08/04 13:57:29;;;;;;;;;;;;;;;25.10;36.84;94514.97;6151597;28;109114;-60
2023/08/04 14:00:43;;;;;;;;;;;;;;;25.16;36.96;94502.88;6152344;28;109451;-60
2023/08/04 14:03:46;;;;;;;;;;;;;;;25.12;36.90;94502.00;6137811;28;109418;-60
2023/08/04 14:06:49;;;;;;;;;;;;;;;25.15;36.97;94505.91;6134469;28;109244;-62